sensor_id;sensor_type;location;lat;lon;timestamp;pressure;altitude;pressure_sealevel;temperature;humidity
5691;BME280;2870;42.680;23.364;2023-05-01T00:01:50;95071.81;;;11.93;100.00
5691;BME280;2870;42.680;23.364;2023-05-01T00:04:16;95078.19;;;11.94;100.00
5691;BME280;2870;42.680;23.364;2023-05-01T00:06:43;95080.63;;;11.98;99.31
5691;BME280;2870;42.680;23.364;2023-05-01T00:09:10;95081.59;;;11.85;98.75
5691;BME280;2870;42.680;23.364;2023-05-01T00:11:37;95085.75;;;11.76;99.00
5691;BME280;2870;42.680;23.364;2023-05-01T00:14:05;95064.81;;;11.70;99.32
5691;BME280;2870;42.680;23.364;2023-05-01T00:16:32;95074.88;;;11.80;98.36
5691;BME280;2870;42.680;23.364;2023-05-01T00:19:00;95078.97;;;11.79;97.92
5691;BME280;2870;42.680;23.364;2023-05-01T00:21:28;95078.97;;;11.79;98.49
5691;BME280;2870;42.680;23.364;2023-05-01T00:23:55;95082.06;;;11.58;99.67
5691;BME280;2870;42.680;23.364;2023-05-01T00:26:22;95077.38;;;11.61;100.00
5691;BME280;2870;42.680;23.364;2023-05-01T00:28:51;95074.34;;;11.66;100.00
5691;BME280;2870;42.680;23.364;2023-05-01T00:31:19;95078.88;;;11.62;100.00
5691;BME280;2870;42.680;23.364;2023-05-01T00:33:46;95077.00;;;11.57;100.00
5691;BME280;2870;42.680;23.364;2023-05-01T00:36:13;95080.97;;;11.54;100.00
5691;BME280;2870;42.680;23.364;2023-05-01T00:38:40;95094.44;;;11.55;100.00
5691;BME280;2870;42.680;23.364;2023-05-01T00:41:07;95089.06;;;11.42;100.00
5691;BME280;2870;42.680;23.364;2023-05-01T00:43:34;95101.94;;;11.45;100.00
5691;BME280;2870;42.680;23.364;2023-05-01T00:46:01;95096.66;;;11.64;100.00
5691;BME280;2870;42.680;23.364;2023-05-01T00:48:29;95087.00;;;11.43;100.00
5691;BME280;2870;42.680;23.364;2023-05-01T00:50:57;95100.31;;;11.27;100.00
5691;BME280;2870;42.680;23.364;2023-05-01T00:53:26;95092.44;;;11.33;100.00
5691;BME280;2870;42.680;23.364;2023-05-01T00:55:53;95098.06;;;11.33;100.00
5691;BME280;2870;42.680;23.364;2023-05-01T00:58:22;95102.19;;;11.32;100.00
5691;BME280;2870;42.680;23.364;2023-05-01T01:00:49;95100.69;;;11.31;100.00
5691;BME280;2870;42.680;23.364;2023-05-01T01:03:16;95104.59;;;11.43;100.00
5691;BME280;2870;42.680;23.364;2023-05-01T01:05:50;95097.16;;;11.30;100.00
5691;BME280;2870;42.680;23.364;2023-05-01T01:08:22;95105.03;;;11.24;100.00
5691;BME280;2870;42.680;23.364;2023-05-01T01:10:52;95115.88;;;11.20;100.00
5691;BME280;2870;42.680;23.364;2023-05-01T01:13:27;95109.16;;;11.15;100.00
5691;BME280;2870;42.680;23.364;2023-05-01T01:16:00;95116.25;;;11.17;100.00
5691;BME280;2870;42.680;23.364;2023-05-01T01:18:33;95113.25;;;11.30;100.00
5691;BME280;2870;42.680;23.364;2023-05-01T01:21:07;95123.59;;;11.12;100.00
5691;BME280;2870;42.680;23.364;2023-05-01T01:27:20;95122.25;;;11.05;100.00
5691;BME280;2870;42.680;23.364;2023-05-01T01:30:10;95126.53;;;11.22;100.00
5691;BME280;2870;42.680;23.364;2023-05-01T01:32:59;95126.22;;;11.02;100.00
5691;BME280;2870;42.680;23.364;2023-05-01T01:35:33;95117.97;;;10.89;100.00
5691;BME280;2870;42.680;23.364;2023-05-01T01:38:03;95116.84;;;10.92;100.00
5691;BME280;2870;42.680;23.364;2023-05-01T01:40:36;95122.66;;;10.94;100.00
5691;BME280;2870;42.680;23.364;2023-05-01T01:43:06;95125.09;;;10.90;100.00
5691;BME280;2870;42.680;23.364;2023-05-01T01:45:36;95112.56;;;10.68;100.00
5691;BME280;2870;42.680;23.364;2023-05-01T01:48:07;95123.97;;;10.63;100.00
5691;BME280;2870;42.680;23.364;2023-05-01T01:50:37;95112.75;;;10.47;100.00
5691;BME280;2870;42.680;23.364;2023-05-01T01:53:06;95115.72;;;10.49;100.00
5691;BME280;2870;42.680;23.364;2023-05-01T01:55:35;95112.00;;;10.47;100.00
5691;BME280;2870;42.680;23.364;2023-05-01T01:58:05;95093.88;;;10.32;100.00
5691;BME280;2870;42.680;23.364;2023-05-01T02:03:09;95112.19;;;10.41;100.00
5691;BME280;2870;42.680;23.364;2023-05-01T02:05:41;95118.16;;;10.45;100.00
5691;BME280;2870;42.680;23.364;2023-05-01T02:08:10;95118.19;;;10.68;100.00
5691;BME280;2870;42.680;23.364;2023-05-01T02:10:37;95111.44;;;10.64;100.00
5691;BME280;2870;42.680;23.364;2023-05-01T02:13:06;95123.78;;;10.45;100.00
5691;BME280;2870;42.680;23.364;2023-05-01T02:15:34;95118.53;;;10.34;100.00
5691;BME280;2870;42.680;23.364;2023-05-01T02:18:02;95118.72;;;10.36;100.00
5691;BME280;2870;42.680;23.364;2023-05-01T02:20:31;95116.25;;;10.25;100.00
5691;BME280;2870;42.680;23.364;2023-05-01T02:23:01;95115.09;;;10.20;100.00
5691;BME280;2870;42.680;23.364;2023-05-01T02:25:31;95119.66;;;10.39;100.00
5691;BME280;2870;42.680;23.364;2023-05-01T02:28:02;95113.88;;;10.59;100.00
5691;BME280;2870;42.680;23.364;2023-05-01T02:30:32;95115.56;;;10.63;100.00
5691;BME280;2870;42.680;23.364;2023-05-01T02:32:59;95113.69;;;10.80;100.00
5691;BME280;2870;42.680;23.364;2023-05-01T02:35:26;95110.72;;;10.78;100.00
5691;BME280;2870;42.680;23.364;2023-05-01T02:37:53;95114.63;;;10.52;100.00
5691;BME280;2870;42.680;23.364;2023-05-01T02:40:21;95108.28;;;10.44;100.00
5691;BME280;2870;42.680;23.364;2023-05-01T02:42:48;95113.84;;;10.37;100.00
5691;BME280;2870;42.680;23.364;2023-05-01T02:45:19;95113.81;;;10.21;100.00
5691;BME280;2870;42.680;23.364;2023-05-01T02:47:50;95113.59;;;10.19;100.00
5691;BME280;2870;42.680;23.364;2023-05-01T02:50:18;95111.44;;;10.33;100.00
5691;BME280;2870;42.680;23.364;2023-05-01T02:52:46;95110.69;;;10.40;100.00
5691;BME280;2870;42.680;23.364;2023-05-01T02:55:13;95113.84;;;10.37;100.00
5691;BME280;2870;42.680;23.364;2023-05-01T02:57:41;95117.53;;;10.16;100.00
5691;BME280;2870;42.680;23.364;2023-05-01T03:00:09;95116.94;;;10.02;100.00
5691;BME280;2870;42.680;23.364;2023-05-01T03:02:38;95120.53;;;10.11;100.00
5691;BME280;2870;42.680;23.364;2023-05-01T03:05:06;95129.00;;;10.41;100.00
5691;BME280;2870;42.680;23.364;2023-05-01T03:07:33;95137.81;;;10.45;100.00
5691;BME280;2870;42.680;23.364;2023-05-01T03:10:00;95134.44;;;10.39;100.00
5691;BME280;2870;42.680;23.364;2023-05-01T03:12:28;95127.97;;;10.00;100.00
5691;BME280;2870;42.680;23.364;2023-05-01T03:14:56;95105.81;;;9.66;100.00
5691;BME280;2870;42.680;23.364;2023-05-01T03:17:23;95108.84;;;9.76;100.00
5691;BME280;2870;42.680;23.364;2023-05-01T03:19:50;95131.44;;;9.86;100.00
5691;BME280;2870;42.680;23.364;2023-05-01T03:22:16;95135.53;;;9.77;100.00
5691;BME280;2870;42.680;23.364;2023-05-01T03:24:43;95138.50;;;9.71;100.00
5691;BME280;2870;42.680;23.364;2023-05-01T03:27:11;95132.84;;;9.64;100.00
5691;BME280;2870;42.680;23.364;2023-05-01T03:29:38;95132.84;;;9.64;100.00
5691;BME280;2870;42.680;23.364;2023-05-01T03:32:06;95143.72;;;9.75;100.00
5691;BME280;2870;42.680;23.364;2023-05-01T03:34:33;95151.56;;;9.69;100.00
5691;BME280;2870;42.680;23.364;2023-05-01T03:37:00;95146.34;;;9.73;100.00
5691;BME280;2870;42.680;23.364;2023-05-01T03:39:27;95148.38;;;9.65;100.00
5691;BME280;2870;42.680;23.364;2023-05-01T03:41:53;95152.47;;;9.64;100.00
5691;BME280;2870;42.680;23.364;2023-05-01T03:44:20;95157.88;;;9.62;100.00
5691;BME280;2870;42.680;23.364;2023-05-01T03:46:47;95156.94;;;9.59;100.00
5691;BME280;2870;42.680;23.364;2023-05-01T03:49:15;95158.00;;;9.48;100.00
5691;BME280;2870;42.680;23.364;2023-05-01T03:51:42;95157.78;;;9.46;100.00
5691;BME280;2870;42.680;23.364;2023-05-01T03:54:08;95158.19;;;9.50;100.00
5691;BME280;2870;42.680;23.364;2023-05-01T03:56:35;95163.38;;;9.46;100.00
5691;BME280;2870;42.680;23.364;2023-05-01T03:59:03;95165.09;;;9.49;100.00
5691;BME280;2870;42.680;23.364;2023-05-01T04:01:29;95169.16;;;9.41;100.00
5691;BME280;2870;42.680;23.364;2023-05-01T04:03:57;95169.38;;;9.43;100.00
5691;BME280;2870;42.680;23.364;2023-05-01T04:06:26;95177.03;;;9.50;100.00
5691;BME280;2870;42.680;23.364;2023-05-01T04:08:52;95174.25;;;9.50;100.00
5691;BME280;2870;42.680;23.364;2023-05-01T04:11:19;95172.88;;;9.72;100.00
5691;BME280;2870;42.680;23.364;2023-05-01T04:13:46;95168.94;;;9.75;100.00
5691;BME280;2870;42.680;23.364;2023-05-01T04:16:13;95172.06;;;9.64;100.00
5691;BME280;2870;42.680;23.364;2023-05-01T04:18:40;95173.03;;;9.66;100.00
5691;BME280;2870;42.680;23.364;2023-05-01T04:21:06;95164.88;;;9.76;100.00
5691;BME280;2870;42.680;23.364;2023-05-01T04:23:35;95172.34;;;9.81;100.00
5691;BME280;2870;42.680;23.364;2023-05-01T04:26:02;95173.72;;;9.95;100.00
5691;BME280;2870;42.680;23.364;2023-05-01T04:28:29;95172.41;;;9.96;100.00
5691;BME280;2870;42.680;23.364;2023-05-01T04:30:56;95178.41;;;10.00;100.00
5691;BME280;2870;42.680;23.364;2023-05-01T04:33:23;95180.75;;;10.25;100.00
5691;BME280;2870;42.680;23.364;2023-05-01T04:35:50;95186.94;;;10.31;100.00
5691;BME280;2870;42.680;23.364;2023-05-01T04:38:16;95165.25;;;10.31;100.00
5691;BME280;2870;42.680;23.364;2023-05-01T04:40:44;95184.91;;;10.54;100.00
5691;BME280;2870;42.680;23.364;2023-05-01T04:43:11;95187.00;;;10.61;100.00
5691;BME280;2870;42.680;23.364;2023-05-01T04:45:38;95149.69;;;10.23;100.00
5691;BME280;2870;42.680;23.364;2023-05-01T04:48:05;95187.94;;;10.56;100.00
5691;BME280;2870;42.680;23.364;2023-05-01T04:50:32;95185.13;;;10.64;100.00
5691;BME280;2870;42.680;23.364;2023-05-01T04:52:59;95192.63;;;11.07;100.00
5691;BME280;2870;42.680;23.364;2023-05-01T04:55:26;95196.94;;;11.08;99.54
5691;BME280;2870;42.680;23.364;2023-05-01T04:57:54;95198.03;;;11.44;97.56
5691;BME280;2870;42.680;23.364;2023-05-01T05:00:22;95204.59;;;11.00;97.96
5691;BME280;2870;42.680;23.364;2023-05-01T05:02:49;95193.94;;;10.99;98.22
5691;BME280;2870;42.680;23.364;2023-05-01T05:05:15;95208.16;;;11.31;99.60
5691;BME280;2870;42.680;23.364;2023-05-01T05:07:42;95209.63;;;11.55;96.36
5691;BME280;2870;42.680;23.364;2023-05-01T05:10:09;95207.50;;;11.79;93.91
5691;BME280;2870;42.680;23.364;2023-05-01T05:12:36;95212.19;;;11.76;93.90
5691;BME280;2870;42.680;23.364;2023-05-01T05:15:05;95213.91;;;11.72;93.01
5691;BME280;2870;42.680;23.364;2023-05-01T05:17:32;95218.19;;;11.80;95.05
5691;BME280;2870;42.680;23.364;2023-05-01T05:19:59;95221.91;;;11.98;92.13
5691;BME280;2870;42.680;23.364;2023-05-01T05:22:26;95226.81;;;11.75;94.06
5691;BME280;2870;42.680;23.364;2023-05-01T05:24:53;95229.97;;;11.94;94.52
5691;BME280;2870;42.680;23.364;2023-05-01T05:27:20;95209.00;;;11.87;94.42
5691;BME280;2870;42.680;23.364;2023-05-01T05:29:47;95231.09;;;11.99;93.90
5691;BME280;2870;42.680;23.364;2023-05-01T05:32:15;95230.53;;;12.00;93.02
5691;BME280;2870;42.680;23.364;2023-05-01T05:34:42;95231.84;;;11.99;91.19
5691;BME280;2870;42.680;23.364;2023-05-01T05:37:08;95229.81;;;11.77;91.60
5691;BME280;2870;42.680;23.364;2023-05-01T05:39:36;95229.94;;;12.02;92.17
5691;BME280;2870;42.680;23.364;2023-05-01T05:42:02;95232.94;;;12.52;91.23
5691;BME280;2870;42.680;23.364;2023-05-01T05:44:29;95236.41;;;13.00;87.92
5691;BME280;2870;42.680;23.364;2023-05-01T05:46:57;95240.06;;;12.85;87.17
5691;BME280;2870;42.680;23.364;2023-05-01T05:49:25;95240.97;;;13.45;86.80
5691;BME280;2870;42.680;23.364;2023-05-01T05:51:52;95241.75;;;13.63;83.74
5691;BME280;2870;42.680;23.364;2023-05-01T05:54:18;95245.84;;;13.45;84.49
5691;BME280;2870;42.680;23.364;2023-05-01T05:56:45;95247.53;;;13.65;84.25
5691;BME280;2870;42.680;23.364;2023-05-01T05:59:12;95251.69;;;13.64;86.53
5691;BME280;2870;42.680;23.364;2023-05-01T06:01:39;95249.88;;;13.34;85.23
5691;BME280;2870;42.680;23.364;2023-05-01T06:04:07;95257.06;;;13.28;85.44
5691;BME280;2870;42.680;23.364;2023-05-01T06:06:35;95259.00;;;13.17;85.97
5691;BME280;2870;42.680;23.364;2023-05-01T06:09:02;95261.19;;;13.26;85.79
5691;BME280;2870;42.680;23.364;2023-05-01T06:11:28;95260.28;;;13.91;83.72
5691;BME280;2870;42.680;23.364;2023-05-01T06:13:55;95261.84;;;14.19;83.36
5691;BME280;2870;42.680;23.364;2023-05-01T06:16:22;95256.84;;;14.27;84.55
5691;BME280;2870;42.680;23.364;2023-05-01T06:18:49;95268.88;;;14.45;86.31
5691;BME280;2870;42.680;23.364;2023-05-01T06:21:16;95274.00;;;14.74;80.81
5691;BME280;2870;42.680;23.364;2023-05-01T06:23:45;95264.81;;;14.56;80.95
5691;BME280;2870;42.680;23.364;2023-05-01T06:26:11;95263.41;;;14.92;80.87
5691;BME280;2870;42.680;23.364;2023-05-01T06:28:38;95267.16;;;15.21;78.02
5691;BME280;2870;42.680;23.364;2023-05-01T06:31:05;95264.81;;;14.56;78.08
5691;BME280;2870;42.680;23.364;2023-05-01T06:33:32;95269.06;;;14.30;79.95
5691;BME280;2870;42.680;23.364;2023-05-01T06:35:58;95271.06;;;14.02;81.54
5691;BME280;2870;42.680;23.364;2023-05-01T06:38:25;95256.63;;;14.16;81.34
5691;BME280;2870;42.680;23.364;2023-05-01T06:40:54;95262.88;;;14.76;80.34
5691;BME280;2870;42.680;23.364;2023-05-01T06:43:20;95254.38;;;14.49;78.35
5691;BME280;2870;42.680;23.364;2023-05-01T06:45:47;95266.88;;;15.00;77.61
5691;BME280;2870;42.680;23.364;2023-05-01T06:48:14;95263.09;;;14.88;77.90
5691;BME280;2870;42.680;23.364;2023-05-01T06:50:41;95258.59;;;15.38;76.37
5691;BME280;2870;42.680;23.364;2023-05-01T06:53:07;95268.59;;;15.59;74.79
5691;BME280;2870;42.680;23.364;2023-05-01T06:55:34;95264.31;;;14.94;77.17
5691;BME280;2870;42.680;23.364;2023-05-01T06:58:02;95266.50;;;14.86;76.77
5691;BME280;2870;42.680;23.364;2023-05-01T07:00:30;95269.63;;;15.44;75.93
5691;BME280;2870;42.680;23.364;2023-05-01T07:02:57;95270.91;;;15.70;74.02
5691;BME280;2870;42.680;23.364;2023-05-01T07:05:24;95261.16;;;16.00;74.74
5691;BME280;2870;42.680;23.364;2023-05-01T07:07:51;95276.38;;;16.34;73.03
5691;BME280;2870;42.680;23.364;2023-05-01T07:10:18;95269.63;;;15.90;72.11
5691;BME280;2870;42.680;23.364;2023-05-01T07:12:45;95274.38;;;15.98;71.83
5691;BME280;2870;42.680;23.364;2023-05-01T07:15:13;95278.88;;;16.20;72.27
5691;BME280;2870;42.680;23.364;2023-05-01T07:17:40;95279.63;;;16.59;72.16
5691;BME280;2870;42.680;23.364;2023-05-01T07:20:08;95275.00;;;17.03;69.20
5691;BME280;2870;42.680;23.364;2023-05-01T07:22:35;95282.78;;;17.33;68.52
5691;BME280;2870;42.680;23.364;2023-05-01T07:25:03;95280.09;;;17.35;68.85
5691;BME280;2870;42.680;23.364;2023-05-01T07:27:30;95284.25;;;17.85;68.65
5691;BME280;2870;42.680;23.364;2023-05-01T07:29:56;95284.63;;;18.22;68.13
5691;BME280;2870;42.680;23.364;2023-05-01T07:32:25;95289.34;;;18.29;68.11
5691;BME280;2870;42.680;23.364;2023-05-01T07:34:52;95294.41;;;18.52;65.09
5691;BME280;2870;42.680;23.364;2023-05-01T07:37:19;95288.84;;;18.54;64.11
5691;BME280;2870;42.680;23.364;2023-05-01T07:39:45;95289.97;;;18.82;61.01
5691;BME280;2870;42.680;23.364;2023-05-01T07:42:12;95264.97;;;18.47;64.71
5691;BME280;2870;42.680;23.364;2023-05-01T07:44:39;95289.66;;;18.99;63.04
5691;BME280;2870;42.680;23.364;2023-05-01T07:47:06;95292.84;;;19.27;60.88
5691;BME280;2870;42.680;23.364;2023-05-01T07:49:37;95290.66;;;19.96;59.66
5691;BME280;2870;42.680;23.364;2023-05-01T07:52:04;95296.00;;;20.01;58.59
5691;BME280;2870;42.680;23.364;2023-05-01T07:54:32;95289.78;;;20.17;57.78
5691;BME280;2870;42.680;23.364;2023-05-01T07:56:59;95287.56;;;20.27;58.32
5691;BME280;2870;42.680;23.364;2023-05-01T07:59:27;95294.16;;;20.67;55.20
5691;BME280;2870;42.680;23.364;2023-05-01T08:01:53;95290.03;;;20.21;57.79
5691;BME280;2870;42.680;23.364;2023-05-01T08:04:20;95288.59;;;20.57;57.63
5691;BME280;2870;42.680;23.364;2023-05-01T08:06:49;95297.00;;;21.29;55.80
5691;BME280;2870;42.680;23.364;2023-05-01T08:09:16;95294.06;;;21.41;54.93
5691;BME280;2870;42.680;23.364;2023-05-01T08:11:42;95304.31;;;21.99;56.64
5691;BME280;2870;42.680;23.364;2023-05-01T08:14:09;95292.34;;;21.89;52.83
5691;BME280;2870;42.680;23.364;2023-05-01T08:16:36;95291.66;;;21.49;53.38
5691;BME280;2870;42.680;23.364;2023-05-01T08:19:03;95285.97;;;21.63;54.38
5691;BME280;2870;42.680;23.364;2023-05-01T08:21:30;95299.97;;;21.98;49.03
5691;BME280;2870;42.680;23.364;2023-05-01T08:23:58;95297.38;;;22.30;47.58
5691;BME280;2870;42.680;23.364;2023-05-01T08:26:25;95288.47;;;22.23;48.02
5691;BME280;2870;42.680;23.364;2023-05-01T08:28:51;95285.19;;;22.15;50.40
5691;BME280;2870;42.680;23.364;2023-05-01T08:31:18;95302.03;;;23.23;48.76
5691;BME280;2870;42.680;23.364;2023-05-01T08:33:45;95300.28;;;23.77;44.96
5691;BME280;2870;42.680;23.364;2023-05-01T08:36:12;95295.69;;;23.41;43.32
5691;BME280;2870;42.680;23.364;2023-05-01T08:38:39;95291.78;;;22.89;46.99
5691;BME280;2870;42.680;23.364;2023-05-01T08:41:08;95298.66;;;23.59;41.87
5691;BME280;2870;42.680;23.364;2023-05-01T08:43:35;95298.16;;;24.59;40.85
5691;BME280;2870;42.680;23.364;2023-05-01T08:46:03;95298.38;;;23.52;41.31
5691;BME280;2870;42.680;23.364;2023-05-01T08:48:34;95287.56;;;23.35;42.16
5691;BME280;2870;42.680;23.364;2023-05-01T08:51:03;95288.56;;;23.42;42.04
5691;BME280;2870;42.680;23.364;2023-05-01T08:53:31;95291.84;;;23.82;43.22
5691;BME280;2870;42.680;23.364;2023-05-01T08:55:59;95284.88;;;24.50;44.38
5691;BME280;2870;42.680;23.364;2023-05-01T08:58:29;95289.63;;;23.64;41.50
5691;BME280;2870;42.680;23.364;2023-05-01T09:00:57;95286.03;;;24.11;42.60
5691;BME280;2870;42.680;23.364;2023-05-01T09:03:26;95246.78;;;24.47;41.60
5691;BME280;2870;42.680;23.364;2023-05-01T09:05:54;95281.13;;;23.82;40.29
5691;BME280;2870;42.680;23.364;2023-05-01T09:08:21;95276.13;;;23.51;42.95
5691;BME280;2870;42.680;23.364;2023-05-01T09:10:48;95276.63;;;23.77;42.27
5691;BME280;2870;42.680;23.364;2023-05-01T09:13:15;95272.31;;;24.93;39.48
5691;BME280;2870;42.680;23.364;2023-05-01T09:15:44;95279.72;;;25.33;38.30
5691;BME280;2870;42.680;23.364;2023-05-01T09:18:10;95287.44;;;25.11;39.24
5691;BME280;2870;42.680;23.364;2023-05-01T09:20:38;95277.41;;;24.43;40.34
5691;BME280;2870;42.680;23.364;2023-05-01T09:23:06;95281.78;;;24.62;38.22
5691;BME280;2870;42.680;23.364;2023-05-01T09:25:32;95285.66;;;24.35;39.78
5691;BME280;2870;42.680;23.364;2023-05-01T09:27:59;95283.84;;;24.77;39.26
5691;BME280;2870;42.680;23.364;2023-05-01T09:30:34;95289.59;;;24.95;39.96
5691;BME280;2870;42.680;23.364;2023-05-01T09:33:09;95287.72;;;24.00;40.22
5691;BME280;2870;42.680;23.364;2023-05-01T09:35:53;95277.34;;;24.58;39.85
5691;BME280;2870;42.680;23.364;2023-05-01T09:38:21;95276.38;;;24.52;41.74
5691;BME280;2870;42.680;23.364;2023-05-01T09:40:48;95277.19;;;25.06;41.19
5691;BME280;2870;42.680;23.364;2023-05-01T09:43:23;95279.06;;;25.17;38.69
5691;BME280;2870;42.680;23.364;2023-05-01T09:46:02;95293.34;;;25.15;37.12
5691;BME280;2870;42.680;23.364;2023-05-01T09:48:32;95277.44;;;24.11;38.82
5691;BME280;2870;42.680;23.364;2023-05-01T09:50:59;95273.44;;;24.18;39.40
5691;BME280;2870;42.680;23.364;2023-05-01T09:53:39;95271.81;;;24.80;37.73
5691;BME280;2870;42.680;23.364;2023-05-01T09:56:06;95276.81;;;24.80;38.29
5691;BME280;2870;42.680;23.364;2023-05-01T09:58:34;95277.19;;;24.72;38.25
5691;BME280;2870;42.680;23.364;2023-05-01T10:01:01;95265.84;;;24.41;38.43
5691;BME280;2870;42.680;23.364;2023-05-01T10:03:29;95259.00;;;24.32;39.02
5691;BME280;2870;42.680;23.364;2023-05-01T10:05:58;95263.28;;;25.54;36.09
5691;BME280;2870;42.680;23.364;2023-05-01T10:08:43;95264.63;;;24.97;37.66
5691;BME280;2870;42.680;23.364;2023-05-01T10:11:10;95267.34;;;26.04;35.66
5691;BME280;2870;42.680;23.364;2023-05-01T10:13:36;95266.16;;;25.54;37.38
5691;BME280;2870;42.680;23.364;2023-05-01T10:16:04;95262.16;;;26.21;36.72
5691;BME280;2870;42.680;23.364;2023-05-01T10:18:32;95266.47;;;26.00;36.63
5691;BME280;2870;42.680;23.364;2023-05-01T10:21:02;95268.13;;;26.88;36.25
5691;BME280;2870;42.680;23.364;2023-05-01T10:23:29;95245.03;;;25.65;37.25
5691;BME280;2870;42.680;23.364;2023-05-01T10:25:56;95261.44;;;24.55;37.77
5691;BME280;2870;42.680;23.364;2023-05-01T10:28:23;95248.72;;;23.77;40.42
5691;BME280;2870;42.680;23.364;2023-05-01T10:30:54;95236.41;;;24.06;40.67
5691;BME280;2870;42.680;23.364;2023-05-01T10:33:23;95253.53;;;24.90;37.82
5691;BME280;2870;42.680;23.364;2023-05-01T10:35:55;95240.97;;;24.29;38.25
5691;BME280;2870;42.680;23.364;2023-05-01T10:38:25;95241.78;;;25.55;35.04
5691;BME280;2870;42.680;23.364;2023-05-01T10:40:54;95247.22;;;26.24;32.02
5691;BME280;2870;42.680;23.364;2023-05-01T10:43:23;95249.91;;;26.82;31.38
5691;BME280;2870;42.680;23.364;2023-05-01T10:45:54;95246.50;;;26.44;32.01
5691;BME280;2870;42.680;23.364;2023-05-01T10:48:52;95244.63;;;26.32;34.48
5691;BME280;2870;42.680;23.364;2023-05-01T10:51:20;95233.09;;;25.73;35.28
5691;BME280;2870;42.680;23.364;2023-05-01T10:54:20;95238.28;;;23.84;37.06
5691;BME280;2870;42.680;23.364;2023-05-01T10:56:42;95204.63;;;22.76;40.34
5691;BME280;2870;42.680;23.364;2023-05-01T10:59:09;95237.44;;;22.32;40.70
5691;BME280;2870;42.680;23.364;2023-05-01T11:01:38;95240.09;;;21.59;41.44
5691;BME280;2870;42.680;23.364;2023-05-01T11:04:06;95227.19;;;21.72;41.48
5691;BME280;2870;42.680;23.364;2023-05-01T11:06:34;95233.88;;;21.23;41.80
5691;BME280;2870;42.680;23.364;2023-05-01T11:09:34;95232.59;;;22.07;41.40
5691;BME280;2870;42.680;23.364;2023-05-01T11:12:01;95231.13;;;22.19;39.73
5691;BME280;2870;42.680;23.364;2023-05-01T11:15:00;95229.94;;;22.68;39.04
5691;BME280;2870;42.680;23.364;2023-05-01T11:17:46;95237.19;;;23.14;37.55
5691;BME280;2870;42.680;23.364;2023-05-01T11:20:47;95244.50;;;23.17;37.31
5691;BME280;2870;42.680;23.364;2023-05-01T11:23:18;95240.03;;;22.98;38.73
5691;BME280;2870;42.680;23.364;2023-05-01T11:25:47;95234.25;;;23.12;37.52
5691;BME280;2870;42.680;23.364;2023-05-01T11:28:19;95207.28;;;22.29;38.80
5691;BME280;2870;42.680;23.364;2023-05-01T11:30:49;95231.81;;;22.34;38.94
5691;BME280;2870;42.680;23.364;2023-05-01T11:33:23;95228.88;;;22.04;40.22
5691;BME280;2870;42.680;23.364;2023-05-01T11:35:59;95234.84;;;22.95;38.74
5691;BME280;2870;42.680;23.364;2023-05-01T11:38:26;95237.09;;;22.83;37.91
5691;BME280;2870;42.680;23.364;2023-05-01T11:40:57;95232.84;;;22.54;37.43
5691;BME280;2870;42.680;23.364;2023-05-01T11:43:24;95233.44;;;22.37;37.87
5691;BME280;2870;42.680;23.364;2023-05-01T11:45:51;95224.28;;;22.54;38.40
5691;BME280;2870;42.680;23.364;2023-05-01T11:48:19;95230.47;;;22.07;39.09
5691;BME280;2870;42.680;23.364;2023-05-01T11:50:46;95222.69;;;22.51;38.69
5691;BME280;2870;42.680;23.364;2023-05-01T11:53:14;95223.91;;;22.05;39.33
5691;BME280;2870;42.680;23.364;2023-05-01T11:55:41;95228.25;;;22.06;39.96
5691;BME280;2870;42.680;23.364;2023-05-01T11:58:10;95229.53;;;21.75;39.67
5691;BME280;2870;42.680;23.364;2023-05-01T12:00:38;95228.03;;;21.88;39.73
5691;BME280;2870;42.680;23.364;2023-05-01T12:03:07;95221.69;;;21.76;39.76
5691;BME280;2870;42.680;23.364;2023-05-01T12:05:36;95228.44;;;21.55;40.37
5691;BME280;2870;42.680;23.364;2023-05-01T12:08:08;95228.84;;;21.35;40.65
5691;BME280;2870;42.680;23.364;2023-05-01T12:10:36;95236.44;;;21.31;40.06
5691;BME280;2870;42.680;23.364;2023-05-01T12:13:04;95236.19;;;21.27;37.91
5691;BME280;2870;42.680;23.364;2023-05-01T12:15:34;95244.00;;;21.26;37.69
5691;BME280;2870;42.680;23.364;2023-05-01T12:18:01;95239.31;;;21.05;38.86
5691;BME280;2870;42.680;23.364;2023-05-01T12:20:39;95249.47;;;21.34;39.18
5691;BME280;2870;42.680;23.364;2023-05-01T12:23:07;95250.75;;;21.19;38.90
5691;BME280;2870;42.680;23.364;2023-05-01T12:25:35;95239.03;;;21.27;39.02
5691;BME280;2870;42.680;23.364;2023-05-01T12:28:07;95245.44;;;21.00;39.59
5691;BME280;2870;42.680;23.364;2023-05-01T12:30:37;95245.88;;;21.08;40.15
5691;BME280;2870;42.680;23.364;2023-05-01T12:33:08;95235.19;;;21.34;39.73
5691;BME280;2870;42.680;23.364;2023-05-01T12:35:36;95232.13;;;21.30;40.10
5691;BME280;2870;42.680;23.364;2023-05-01T12:38:09;95243.34;;;21.14;40.66
5691;BME280;2870;42.680;23.364;2023-05-01T12:40:37;95242.25;;;20.94;41.72
5691;BME280;2870;42.680;23.364;2023-05-01T12:43:04;95239.06;;;20.76;41.66
5691;BME280;2870;42.680;23.364;2023-05-01T12:45:38;95241.25;;;20.63;42.86
5691;BME280;2870;42.680;23.364;2023-05-01T12:48:10;95235.50;;;21.01;43.23
5691;BME280;2870;42.680;23.364;2023-05-01T12:50:38;95234.50;;;21.22;42.29
5691;BME280;2870;42.680;23.364;2023-05-01T12:53:05;95237.28;;;20.94;43.56
5691;BME280;2870;42.680;23.364;2023-05-01T12:55:41;95230.38;;;21.25;43.30
5691;BME280;2870;42.680;23.364;2023-05-01T12:58:10;95234.09;;;20.88;44.17
5691;BME280;2870;42.680;23.364;2023-05-01T13:00:49;95238.06;;;20.57;44.71
5691;BME280;2870;42.680;23.364;2023-05-01T13:03:22;95241.91;;;20.87;44.67
5691;BME280;2870;42.680;23.364;2023-05-01T13:05:53;95227.81;;;20.78;44.25
5691;BME280;2870;42.680;23.364;2023-05-01T13:08:29;95236.03;;;20.72;44.59
5691;BME280;2870;42.680;23.364;2023-05-01T13:10:57;95240.84;;;20.69;45.14
5691;BME280;2870;42.680;23.364;2023-05-01T13:13:28;95241.81;;;20.74;43.85
5691;BME280;2870;42.680;23.364;2023-05-01T13:16:05;95236.69;;;20.58;44.16
5691;BME280;2870;42.680;23.364;2023-05-01T13:18:36;95240.97;;;20.34;44.28
5691;BME280;2870;42.680;23.364;2023-05-01T13:21:09;95242.38;;;20.58;43.77
5691;BME280;2870;42.680;23.364;2023-05-01T13:23:37;95245.94;;;20.22;43.41